createdAt,value
2023-04-10T00:00:00.110Z,99.90
2023-04-10T00:02:27.487Z,99.90
2023-04-10T00:04:55.004Z,99.90
2023-04-10T00:07:21.881Z,99.90
2023-04-10T00:09:48.822Z,99.90
2023-04-10T00:12:15.810Z,99.90
2023-04-10T00:14:42.597Z,99.90
2023-04-10T00:17:09.600Z,99.90
2023-04-10T00:19:36.606Z,99.90
2023-04-10T00:22:03.429Z,99.90
2023-04-10T00:24:30.448Z,99.90
2023-04-10T00:26:57.703Z,99.90
2023-04-10T00:29:25.792Z,99.90
2023-04-10T00:31:53.238Z,99.90
2023-04-10T00:34:20.477Z,99.90
2023-04-10T00:36:47.951Z,99.90
2023-04-10T00:39:15.732Z,99.90
2023-04-10T00:41:44.363Z,99.90
2023-04-10T00:44:11.974Z,99.90
2023-04-10T00:46:41.637Z,99.90
2023-04-10T00:49:09.802Z,99.90
2023-04-10T00:51:37.960Z,99.90
2023-04-10T00:54:06.791Z,99.90
2023-04-10T00:56:34.010Z,99.90
2023-04-10T00:59:04.065Z,99.90
2023-04-10T01:01:32.306Z,99.90
2023-04-10T01:03:59.864Z,99.90
2023-04-10T01:06:59.788Z,99.90
2023-04-10T01:09:44.991Z,99.90
2023-04-10T01:12:25.915Z,99.90
2023-04-10T01:15:07.959Z,99.90
2023-04-10T01:17:49.843Z,99.90
2023-04-10T01:20:21.250Z,99.90
2023-04-10T01:23:10.257Z,99.90
2023-04-10T01:25:52.153Z,99.90
2023-04-10T01:28:19.231Z,99.90
2023-04-10T01:30:54.002Z,99.90
2023-04-10T01:33:26.540Z,99.90
2023-04-10T01:35:57.813Z,99.90
2023-04-10T01:38:28.918Z,99.90
2023-04-10T01:41:00.069Z,99.90
2023-04-10T01:43:32.272Z,99.90
2023-04-10T01:46:01.236Z,99.90
2023-04-10T01:48:28.506Z,99.90
2023-04-10T01:50:57.395Z,99.90
2023-04-10T01:53:25.787Z,99.90
2023-04-10T01:55:53.853Z,99.90
2023-04-10T01:58:21.795Z,99.90
2023-04-10T02:00:49.204Z,99.90
2023-04-10T02:03:18.222Z,99.90
2023-04-10T02:06:19.218Z,99.90
2023-04-10T02:08:54.139Z,99.90
2023-04-10T02:11:32.417Z,99.90
2023-04-10T02:14:04.293Z,99.90
2023-04-10T02:16:35.538Z,99.90
2023-04-10T02:19:08.066Z,99.90
2023-04-10T02:21:40.294Z,99.90
2023-04-10T02:24:12.054Z,99.90
2023-04-10T02:26:55.966Z,99.90
2023-04-10T02:29:25.184Z,99.90
2023-04-10T02:31:53.561Z,99.90
2023-04-10T02:34:23.075Z,99.90
2023-04-10T02:36:50.862Z,99.90
2023-04-10T02:39:21.362Z,99.90
2023-04-10T02:41:56.241Z,99.90
2023-04-10T02:44:28.481Z,99.90
2023-04-10T02:46:56.614Z,99.90
2023-04-10T02:49:23.772Z,99.90
2023-04-10T02:51:51.365Z,99.90
2023-04-10T02:54:18.528Z,99.90
2023-04-10T02:56:45.720Z,99.90
2023-04-10T02:59:13.279Z,99.90
2023-04-10T03:01:41.428Z,99.90
2023-04-10T03:04:09.311Z,99.90
2023-04-10T03:06:39.335Z,99.90
2023-04-10T03:09:06.511Z,99.90
2023-04-10T03:11:34.332Z,99.90
2023-04-10T03:14:01.637Z,99.90
2023-04-10T03:16:31.910Z,99.90
2023-04-10T03:19:06.736Z,99.90
2023-04-10T03:21:33.948Z,99.90
2023-04-10T03:24:01.318Z,99.90
2023-04-10T03:26:28.339Z,99.90
2023-04-10T03:28:55.396Z,99.90
2023-04-10T03:31:22.267Z,99.90
2023-04-10T03:33:50.454Z,99.90
2023-04-10T03:36:17.702Z,99.90
2023-04-10T03:38:45.898Z,99.90
2023-04-10T03:41:14.329Z,99.90
2023-04-10T03:43:41.465Z,99.90
2023-04-10T03:46:08.895Z,99.90
2023-04-10T03:48:41.623Z,99.90
2023-04-10T03:51:10.035Z,99.90
2023-04-10T03:53:37.021Z,99.90
2023-04-10T03:56:08.758Z,99.90
2023-04-10T03:58:36.503Z,99.90
2023-04-10T04:01:05.342Z,99.90
2023-04-10T04:03:39.675Z,99.90
2023-04-10T04:06:27.626Z,99.90
2023-04-10T04:09:27.170Z,99.90
2023-04-10T04:12:13.103Z,99.90
2023-04-10T04:15:00.839Z,99.90
2023-04-10T04:17:57.828Z,99.90
2023-04-10T04:20:45.331Z,99.90
2023-04-10T04:23:25.007Z,99.90
2023-04-10T04:26:03.731Z,99.90
2023-04-10T04:28:49.291Z,99.90
2023-04-10T04:31:38.416Z,99.90
2023-04-10T04:34:05.421Z,99.90
2023-04-10T04:36:43.944Z,99.90
2023-04-10T04:39:35.816Z,99.90
2023-04-10T04:42:04.672Z,99.90
2023-04-10T04:44:40.719Z,99.90
2023-04-10T04:47:21.062Z,99.90
2023-04-10T04:50:01.041Z,99.90
2023-04-10T04:52:49.675Z,99.90
2023-04-10T04:55:53.187Z,99.90
2023-04-10T04:58:45.198Z,99.90
2023-04-10T05:01:16.637Z,99.90
2023-04-10T05:03:58.651Z,99.90
2023-04-10T05:06:44.300Z,99.90
2023-04-10T05:09:22.345Z,99.90
2023-04-10T05:12:07.493Z,99.90
2023-04-10T05:14:46.577Z,99.90
2023-04-10T05:17:44.415Z,99.90
2023-04-10T05:20:41.322Z,99.90
2023-04-10T05:23:36.836Z,99.90
2023-04-10T05:26:22.681Z,99.90
2023-04-10T05:29:12.441Z,99.90
2023-04-10T05:31:56.347Z,99.90
2023-04-10T05:34:58.978Z,99.90
2023-04-10T05:37:35.731Z,99.90
2023-04-10T05:40:24.935Z,99.90
2023-04-10T05:43:19.431Z,99.90
2023-04-10T05:46:12.881Z,99.90
2023-04-10T05:48:45.624Z,99.90
2023-04-10T05:51:31.933Z,99.90
2023-04-10T05:54:14.751Z,99.90
2023-04-10T05:57:02.008Z,99.90
2023-04-10T05:59:49.599Z,99.90
2023-04-10T06:02:48.744Z,99.90
2023-04-10T06:05:23.563Z,99.90
2023-04-10T06:07:58.561Z,99.90
2023-04-10T06:10:28.409Z,99.90
2023-04-10T06:12:55.392Z,99.90
2023-04-10T06:15:23.607Z,99.90
2023-04-10T06:17:50.535Z,99.90
2023-04-10T06:20:17.471Z,99.90
2023-04-10T06:22:44.245Z,99.90
2023-04-10T06:25:11.007Z,99.90
2023-04-10T06:27:37.873Z,99.90
2023-04-10T06:30:08.861Z,99.90
2023-04-10T06:32:35.811Z,99.90
2023-04-10T06:35:02.571Z,99.90
2023-04-10T06:37:32.874Z,99.90
2023-04-10T06:40:14.085Z,99.90
2023-04-10T06:42:41.588Z,99.90
2023-04-10T06:45:27.099Z,99.90
2023-04-10T06:47:53.824Z,99.90
2023-04-10T06:50:23.208Z,99.90
2023-04-10T06:52:49.982Z,99.90
2023-04-10T06:55:17.041Z,99.90
2023-04-10T06:57:43.725Z,99.90
2023-04-10T07:00:10.923Z,99.90
2023-04-10T07:02:37.744Z,99.90
2023-04-10T07:05:05.105Z,99.90
2023-04-10T07:07:32.917Z,99.90
2023-04-10T07:09:59.820Z,99.90
2023-04-10T07:12:26.761Z,99.90
2023-04-10T07:14:53.564Z,99.90
2023-04-10T07:17:20.495Z,99.90
2023-04-10T07:19:47.425Z,99.90
2023-04-10T07:22:14.723Z,99.90
2023-04-10T07:24:41.557Z,99.90
2023-04-10T07:27:08.376Z,99.90
2023-04-10T07:29:35.266Z,99.90
2023-04-10T07:32:02.070Z,99.90
2023-04-10T07:34:28.998Z,99.90
2023-04-10T07:36:55.732Z,99.90
2023-04-10T07:39:22.387Z,99.90
2023-04-10T07:41:49.280Z,99.90
2023-04-10T07:44:17.546Z,99.90
2023-04-10T07:46:44.359Z,99.90
2023-04-10T07:49:12.051Z,99.90
2023-04-10T07:51:38.812Z,99.90
2023-04-10T07:54:05.626Z,99.90
2023-04-10T07:56:32.376Z,99.90
2023-04-10T07:59:03.289Z,99.90
2023-04-10T08:01:30.197Z,99.90
2023-04-10T08:03:57.112Z,99.90
2023-04-10T08:06:23.966Z,99.90
2023-04-10T08:08:52.382Z,99.90
2023-04-10T08:11:31.330Z,99.90
2023-04-10T08:14:01.691Z,99.90
2023-04-10T08:16:30.829Z,99.90
2023-04-10T08:18:58.513Z,99.90
2023-04-10T08:21:27.815Z,99.90
2023-04-10T08:23:56.907Z,99.90
2023-04-10T08:26:24.927Z,99.90
2023-04-10T08:28:53.531Z,99.90
2023-04-10T08:31:22.274Z,99.90
2023-04-10T08:33:49.624Z,99.90
2023-04-10T08:36:19.594Z,99.20
2023-04-10T08:38:47.598Z,98.80
2023-04-10T08:41:16.908Z,97.60
2023-04-10T08:43:45.527Z,96.10
2023-04-10T08:46:14.151Z,94.20
2023-04-10T08:48:53.559Z,93.50
2023-04-10T08:51:26.000Z,93.30
2023-04-10T08:53:58.866Z,91.90
2023-04-10T08:56:26.845Z,88.30
2023-04-10T08:58:53.819Z,87.50
2023-04-10T09:01:21.651Z,88.50
2023-04-10T09:03:49.720Z,88.50
2023-04-10T09:06:16.568Z,87.70
2023-04-10T09:08:44.469Z,86.30
2023-04-10T09:11:13.129Z,85.30
2023-04-10T09:13:42.073Z,83.90
2023-04-10T09:16:10.968Z,81.80
2023-04-10T09:18:49.877Z,80.70
2023-04-10T09:21:18.879Z,79.80
2023-04-10T09:23:46.914Z,77.80
2023-04-10T09:26:31.049Z,78.30
2023-04-10T09:28:57.956Z,79.70
2023-04-10T09:31:33.475Z,80.10
2023-04-10T09:34:24.279Z,78.20
2023-04-10T09:36:58.871Z,77.70
2023-04-10T09:39:43.063Z,77.30
2023-04-10T09:42:11.542Z,76.70
2023-04-10T09:44:40.518Z,77.00
2023-04-10T09:47:18.105Z,75.30
2023-04-10T09:50:03.531Z,75.50
2023-04-10T09:52:33.899Z,75.70
2023-04-10T09:55:05.695Z,74.90
2023-04-10T09:57:34.826Z,74.80
2023-04-10T10:00:08.322Z,73.80
2023-04-10T10:02:39.859Z,73.00
2023-04-10T10:05:07.785Z,72.60
2023-04-10T10:07:35.921Z,70.60
2023-04-10T10:10:03.793Z,69.80
2023-04-10T10:12:48.846Z,69.80
2023-04-10T10:15:44.478Z,69.10
2023-04-10T10:18:26.307Z,66.20
2023-04-10T10:20:54.344Z,61.70
2023-04-10T10:23:22.486Z,58.20
2023-04-10T10:25:50.382Z,57.70
2023-04-10T10:28:18.981Z,57.40
2023-04-10T10:30:47.094Z,55.90
2023-04-10T10:33:14.578Z,55.10
2023-04-10T10:35:42.183Z,53.70
2023-04-10T10:38:10.226Z,53.50
2023-04-10T10:41:06.500Z,53.00
2023-04-10T10:43:47.312Z,51.30
2023-04-10T10:46:37.577Z,51.20
2023-04-10T10:49:04.511Z,50.80
2023-04-10T10:51:48.476Z,51.10
2023-04-10T10:54:31.837Z,50.60
2023-04-10T10:56:59.164Z,49.90
2023-04-10T10:59:55.256Z,48.80
2023-04-10T11:02:22.139Z,49.20
2023-04-10T11:04:49.540Z,48.70
2023-04-10T11:07:16.755Z,48.20
2023-04-10T11:09:48.566Z,47.70
2023-04-10T11:12:20.524Z,48.10
2023-04-10T11:14:58.253Z,48.60
2023-04-10T11:17:51.559Z,48.90
2023-04-10T11:20:27.214Z,50.10
2023-04-10T11:23:11.180Z,50.00
2023-04-10T11:25:49.523Z,49.50
2023-04-10T11:28:35.992Z,49.30
2023-04-10T11:31:16.299Z,49.40
2023-04-10T11:33:43.468Z,48.90
2023-04-10T11:36:13.511Z,49.00
2023-04-10T11:38:40.303Z,48.70
2023-04-10T11:41:07.128Z,49.30
2023-04-10T11:43:35.034Z,49.60
2023-04-10T11:46:04.101Z,49.40
2023-04-10T11:48:31.800Z,49.40
2023-04-10T11:51:00.127Z,49.10
2023-04-10T11:53:27.297Z,48.70
2023-04-10T11:55:54.832Z,49.10
2023-04-10T11:58:26.962Z,50.10
2023-04-10T12:01:02.019Z,50.30
2023-04-10T12:03:58.782Z,50.50
2023-04-10T12:06:25.991Z,50.80
2023-04-10T12:08:53.679Z,50.70
2023-04-10T12:11:26.543Z,50.40
2023-04-10T12:13:57.977Z,51.50
2023-04-10T12:16:26.569Z,51.80
2023-04-10T12:18:53.944Z,51.20
2023-04-10T12:21:21.288Z,51.40
2023-04-10T12:23:48.284Z,51.20
2023-04-10T12:26:17.512Z,51.20
2023-04-10T12:28:55.900Z,51.10
2023-04-10T12:31:29.235Z,50.60
2023-04-10T12:33:58.013Z,50.60
2023-04-10T12:36:30.472Z,50.30
2023-04-10T12:38:58.485Z,49.60
2023-04-10T12:41:27.462Z,48.60
2023-04-10T12:44:07.616Z,48.70
2023-04-10T12:46:36.553Z,48.40
2023-04-10T12:49:14.949Z,48.00
2023-04-10T12:51:46.255Z,48.70
2023-04-10T12:54:31.963Z,49.00
2023-04-10T12:56:59.806Z,50.10
2023-04-10T12:59:27.153Z,50.70
2023-04-10T13:01:54.983Z,50.70
2023-04-10T13:04:22.186Z,50.10
2023-04-10T13:06:52.488Z,49.80
2023-04-10T13:09:20.682Z,50.00
2023-04-10T13:11:51.020Z,50.70
2023-04-10T13:14:18.556Z,51.10
2023-04-10T13:16:45.466Z,51.20
2023-04-10T13:19:13.019Z,50.10
2023-04-10T13:21:39.794Z,49.70
2023-04-10T13:24:06.566Z,50.20
2023-04-10T13:26:33.385Z,50.90
2023-04-10T13:29:00.440Z,51.70
2023-04-10T13:31:28.610Z,52.30
2023-04-10T13:33:55.821Z,51.80
2023-04-10T13:36:23.031Z,52.10
2023-04-10T13:38:50.043Z,52.60
2023-04-10T13:41:16.867Z,52.60
2023-04-10T13:43:43.552Z,52.40
2023-04-10T13:46:10.329Z,51.90
2023-04-10T13:48:41.182Z,52.30
2023-04-10T13:51:08.602Z,51.70
2023-04-10T13:53:36.246Z,51.00
2023-04-10T13:56:03.192Z,51.80
2023-04-10T13:58:32.163Z,51.40
2023-04-10T14:00:59.344Z,51.80
2023-04-10T14:03:26.520Z,50.10
2023-04-10T14:05:54.063Z,50.30
2023-04-10T14:08:20.813Z,51.00
2023-04-10T14:10:51.404Z,50.30
2023-04-10T14:13:18.663Z,50.60
2023-04-10T14:15:45.586Z,50.40
2023-04-10T14:18:12.849Z,50.50
2023-04-10T14:20:42.384Z,49.60
2023-04-10T14:23:10.063Z,49.80
2023-04-10T14:25:36.867Z,49.00
2023-04-10T14:28:04.326Z,48.00
2023-04-10T14:30:32.736Z,48.60
2023-04-10T14:32:59.810Z,48.10
2023-04-10T14:35:26.755Z,48.90
2023-04-10T14:37:53.573Z,48.70
2023-04-10T14:40:20.363Z,49.20
2023-04-10T14:42:47.047Z,48.90
2023-04-10T14:45:14.010Z,48.90
2023-04-10T14:47:41.798Z,48.20
2023-04-10T14:50:08.929Z,48.90
2023-04-10T14:52:35.697Z,49.00
2023-04-10T14:55:02.664Z,49.20
2023-04-10T14:57:31.414Z,50.70
2023-04-10T15:00:01.352Z,50.60
2023-04-10T15:02:30.041Z,50.80
2023-04-10T15:04:57.190Z,51.10
2023-04-10T15:07:28.343Z,51.90
2023-04-10T15:09:58.430Z,52.40
2023-04-10T15:12:25.339Z,53.00
2023-04-10T15:14:52.413Z,53.10
2023-04-10T15:17:23.552Z,54.40
2023-04-10T15:19:50.480Z,54.20
2023-04-10T15:22:17.213Z,55.20
2023-04-10T15:24:50.553Z,54.50
2023-04-10T15:27:20.977Z,54.70
2023-04-10T15:29:47.783Z,54.50
2023-04-10T15:32:14.451Z,55.10
2023-04-10T15:34:41.231Z,55.00
2023-04-10T15:37:07.948Z,54.80
2023-04-10T15:39:36.875Z,55.20
2023-04-10T15:42:05.913Z,54.80
2023-04-10T15:44:32.825Z,54.80
2023-04-10T15:46:59.547Z,54.90
2023-04-10T15:49:37.040Z,54.10
2023-04-10T15:52:06.538Z,53.90
2023-04-10T15:54:34.583Z,53.00
2023-04-10T15:57:02.022Z,52.90
2023-04-10T15:59:28.984Z,52.80
2023-04-10T16:01:56.041Z,52.00
2023-04-10T16:04:23.221Z,52.30
2023-04-10T16:06:50.649Z,52.20
2023-04-10T16:11:50.126Z,52.40
2023-04-10T16:14:18.928Z,51.30
2023-04-10T16:16:46.245Z,51.70
2023-04-10T16:19:13.172Z,52.40
2023-04-10T16:21:40.170Z,53.90
2023-04-10T16:24:08.880Z,54.10
2023-04-10T16:26:35.662Z,54.60
2023-04-10T16:29:02.437Z,55.20
2023-04-10T16:31:29.941Z,56.50
2023-04-10T16:33:56.973Z,57.70
2023-04-10T16:36:23.804Z,58.30
2023-04-10T16:38:50.565Z,59.30
2023-04-10T16:41:18.477Z,60.60
2023-04-10T16:43:45.373Z,61.30
2023-04-10T16:46:12.247Z,61.90
2023-04-10T16:48:38.978Z,62.50
2023-04-10T16:51:06.877Z,63.10
2023-04-10T16:53:35.922Z,63.60
2023-04-10T16:56:04.830Z,63.80
2023-04-10T16:58:34.252Z,64.30
2023-04-10T17:01:12.796Z,64.30
2023-04-10T17:03:39.679Z,64.30
2023-04-10T17:06:06.506Z,64.50
2023-04-10T17:08:33.227Z,64.80
2023-04-10T17:10:59.812Z,65.10
2023-04-10T17:13:26.612Z,65.10
2023-04-10T17:15:53.325Z,65.40
2023-04-10T17:18:21.675Z,65.80
2023-04-10T17:20:48.551Z,66.20
2023-04-10T17:23:15.391Z,66.50
2023-04-10T17:25:42.448Z,66.30
2023-04-10T17:28:09.240Z,66.40
2023-04-10T17:30:36.019Z,66.30
2023-04-10T17:33:02.818Z,66.30
2023-04-10T17:35:31.887Z,66.20
2023-04-10T17:37:58.741Z,66.10
2023-04-10T17:40:25.585Z,66.30
2023-04-10T17:42:52.487Z,66.40
2023-04-10T17:45:19.221Z,66.70
2023-04-10T17:47:45.956Z,66.80
2023-04-10T17:50:12.798Z,66.80
2023-04-10T17:52:39.518Z,67.30
2023-04-10T17:55:06.846Z,67.50
2023-04-10T17:57:33.616Z,67.60
2023-04-10T18:00:00.370Z,67.60
2023-04-10T18:02:27.080Z,67.80
2023-04-10T18:04:54.506Z,67.90
2023-04-10T18:07:21.260Z,68.40
2023-04-10T18:09:48.077Z,68.60
2023-04-10T18:12:14.951Z,68.70
2023-04-10T18:14:42.797Z,68.60
2023-04-10T18:17:09.544Z,68.90
2023-04-10T18:19:36.176Z,68.90
2023-04-10T18:22:02.899Z,69.00
2023-04-10T18:24:29.561Z,69.50
2023-04-10T18:26:56.516Z,69.50
2023-04-10T18:29:26.036Z,70.10
2023-04-10T18:31:52.910Z,70.30
2023-04-10T18:34:19.624Z,70.60
2023-04-10T18:36:46.742Z,70.90
2023-04-10T18:39:13.533Z,71.20
2023-04-10T18:41:40.425Z,71.60
2023-04-10T18:44:07.430Z,71.80
2023-04-10T18:46:34.947Z,72.20
2023-04-10T18:49:03.255Z,72.40
2023-04-10T18:51:31.777Z,72.70
2023-04-10T18:53:59.017Z,72.70
2023-04-10T18:56:25.962Z,73.00
2023-04-10T18:58:52.800Z,72.90
2023-04-10T19:01:21.526Z,73.10
2023-04-10T19:03:50.795Z,73.30
2023-04-10T19:06:23.840Z,73.30
2023-04-10T19:08:51.261Z,73.70
2023-04-10T19:11:18.797Z,74.10
2023-04-10T19:13:45.817Z,74.30
2023-04-10T19:16:14.622Z,74.60
2023-04-10T19:18:41.509Z,74.70
2023-04-10T19:21:08.153Z,74.80
2023-04-10T19:23:35.543Z,74.90
2023-04-10T19:26:02.267Z,75.30
2023-04-10T19:28:29.420Z,75.50
2023-04-10T19:30:56.315Z,75.80
2023-04-10T19:33:23.245Z,75.90
2023-04-10T19:35:50.028Z,76.00
2023-04-10T19:38:16.704Z,76.40
2023-04-10T19:40:44.512Z,76.80
2023-04-10T19:43:12.284Z,76.80
2023-04-10T19:45:39.914Z,76.90
2023-04-10T19:48:09.740Z,77.00
2023-04-10T19:50:36.605Z,77.20
2023-04-10T19:53:04.132Z,77.60
2023-04-10T19:55:31.563Z,77.70
2023-04-10T19:57:58.274Z,78.30
2023-04-10T20:00:25.148Z,78.60
2023-04-10T20:02:52.015Z,79.00
2023-04-10T20:05:19.249Z,78.90
2023-04-10T20:07:46.004Z,79.60
2023-04-10T20:10:12.817Z,80.60
2023-04-10T20:12:39.635Z,81.20
2023-04-10T20:15:06.637Z,81.00
2023-04-10T20:17:33.497Z,81.70
2023-04-10T20:20:00.285Z,81.90
2023-04-10T20:22:27.016Z,82.60
2023-04-10T20:24:53.787Z,83.00
2023-04-10T20:27:20.549Z,83.30
2023-04-10T20:29:47.400Z,83.50
2023-04-10T20:32:14.154Z,83.70
2023-04-10T20:34:40.960Z,84.70
2023-04-10T20:37:07.647Z,85.60
2023-04-10T20:39:34.470Z,86.60
2023-04-10T20:42:01.399Z,87.90
2023-04-10T20:44:28.197Z,89.10
2023-04-10T20:46:54.998Z,90.00
2023-04-10T20:49:22.660Z,90.40
2023-04-10T20:51:49.507Z,90.50
2023-04-10T20:54:18.820Z,90.70
2023-04-10T20:56:46.589Z,90.90
2023-04-10T20:59:13.350Z,91.10
2023-04-10T21:01:40.326Z,91.10
2023-04-10T21:04:07.394Z,91.20
2023-04-10T21:06:34.691Z,91.30
2023-04-10T21:09:01.409Z,91.60
2023-04-10T21:11:28.214Z,91.90
2023-04-10T21:13:55.116Z,91.80
2023-04-10T21:16:21.873Z,91.90
2023-04-10T21:18:48.619Z,92.20
2023-04-10T21:21:15.527Z,92.60
2023-04-10T21:23:42.324Z,92.90
2023-04-10T21:26:08.977Z,93.20
2023-04-10T21:28:35.975Z,93.50
2023-04-10T21:31:02.745Z,93.70
2023-04-10T21:33:29.552Z,93.90
2023-04-10T21:35:56.316Z,94.10
2023-04-10T21:38:23.997Z,94.30
2023-04-10T21:40:51.954Z,94.50
2023-04-10T21:43:19.475Z,94.70
2023-04-10T21:45:46.310Z,94.90
2023-04-10T21:48:13.303Z,95.00
2023-04-10T21:50:40.483Z,95.20
2023-04-10T21:53:07.409Z,95.40
2023-04-10T21:55:34.298Z,95.40
2023-04-10T21:58:01.050Z,95.50
2023-04-10T22:00:31.649Z,95.90
2023-04-10T22:02:58.898Z,96.00
2023-04-10T22:05:25.771Z,96.00
2023-04-10T22:07:52.387Z,95.90
2023-04-10T22:10:19.340Z,96.10
2023-04-10T22:12:48.560Z,96.70
2023-04-10T22:15:16.238Z,97.30
2023-04-10T22:17:43.066Z,97.80
2023-04-10T22:20:10.401Z,98.10
2023-04-10T22:22:37.177Z,98.40
2023-04-10T22:25:04.109Z,99.10
2023-04-10T22:27:30.886Z,99.90
2023-04-10T22:32:27.463Z,99.90
2023-04-10T22:34:54.274Z,99.90
2023-04-10T22:37:20.864Z,99.90
2023-04-10T22:39:47.629Z,99.90
2023-04-10T22:42:14.354Z,99.90
2023-04-10T22:44:41.082Z,99.90
2023-04-10T22:47:07.853Z,99.90
2023-04-10T22:49:34.727Z,99.90
2023-04-10T22:52:01.456Z,99.90
2023-04-10T22:54:29.472Z,99.90
2023-04-10T22:56:57.417Z,99.90
2023-04-10T22:59:24.237Z,99.90
2023-04-10T23:01:51.592Z,99.90
2023-04-10T23:04:18.552Z,99.90
2023-04-10T23:06:45.522Z,99.90
2023-04-10T23:09:12.446Z,99.90
2023-04-10T23:11:39.168Z,99.90
2023-04-10T23:14:05.895Z,99.90
2023-04-10T23:16:32.744Z,99.90
2023-04-10T23:18:59.468Z,99.90
2023-04-10T23:21:27.127Z,99.90
2023-04-10T23:23:53.906Z,99.90
2023-04-10T23:26:20.802Z,99.90
2023-04-10T23:28:47.822Z,99.90
2023-04-10T23:31:14.945Z,99.90
2023-04-10T23:33:41.816Z,99.90
2023-04-10T23:36:08.611Z,99.90
2023-04-10T23:38:35.441Z,99.90
2023-04-10T23:41:03.236Z,99.90
2023-04-10T23:43:30.144Z,99.90
2023-04-10T23:45:56.859Z,99.90
2023-04-10T23:48:23.649Z,99.90
2023-04-10T23:50:50.513Z,99.90
2023-04-10T23:53:17.715Z,99.90
2023-04-10T23:55:44.630Z,99.90
2023-04-10T23:58:11.418Z,99.90
